sensor_id;sensor_type;location;lat;lon;timestamp;P1;durP1;ratioP1;P2;durP2;ratioP2
71503;SDS011;59323;50.874;7.028;2023-04-07T00:00:42;16.63;;;9.07;;
71503;SDS011;59323;50.874;7.028;2023-04-07T00:03:08;19.23;;;8.90;;
71503;SDS011;59323;50.874;7.028;2023-04-07T00:05:33;20.63;;;8.93;;
71503;SDS011;59323;50.874;7.028;2023-04-07T00:07:59;19.75;;;9.43;;
71503;SDS011;59323;50.874;7.028;2023-04-07T00:10:24;21.33;;;9.40;;
71503;SDS011;59323;50.874;7.028;2023-04-07T00:12:52;18.00;;;9.57;;
71503;SDS011;59323;50.874;7.028;2023-04-07T00:15:18;17.17;;;8.32;;
71503;SDS011;59323;50.874;7.028;2023-04-07T00:17:43;19.10;;;9.03;;
71503;SDS011;59323;50.874;7.028;2023-04-07T00:20:09;18.13;;;9.03;;
71503;SDS011;59323;50.874;7.028;2023-04-07T00:22:35;21.33;;;9.77;;
71503;SDS011;59323;50.874;7.028;2023-04-07T00:25:00;20.83;;;9.93;;
71503;SDS011;59323;50.874;7.028;2023-04-07T00:27:25;19.60;;;9.27;;
71503;SDS011;59323;50.874;7.028;2023-04-07T00:29:51;21.60;;;9.67;;
71503;SDS011;59323;50.874;7.028;2023-04-07T00:32:19;20.27;;;9.80;;
71503;SDS011;59323;50.874;7.028;2023-04-07T00:34:45;19.77;;;10.25;;
71503;SDS011;59323;50.874;7.028;2023-04-07T00:37:10;21.20;;;10.00;;
71503;SDS011;59323;50.874;7.028;2023-04-07T00:39:36;17.80;;;8.57;;
71503;SDS011;59323;50.874;7.028;2023-04-07T00:42:02;19.15;;;9.63;;
71503;SDS011;59323;50.874;7.028;2023-04-07T00:44:28;19.53;;;9.63;;
71503;SDS011;59323;50.874;7.028;2023-04-07T00:46:54;20.60;;;10.40;;
71503;SDS011;59323;50.874;7.028;2023-04-07T00:49:19;18.70;;;9.57;;
71503;SDS011;59323;50.874;7.028;2023-04-07T00:51:48;19.77;;;9.67;;
71503;SDS011;59323;50.874;7.028;2023-04-07T00:54:14;20.52;;;10.32;;
71503;SDS011;59323;50.874;7.028;2023-04-07T00:56:39;19.70;;;9.88;;
71503;SDS011;59323;50.874;7.028;2023-04-07T00:59:04;19.43;;;10.43;;
71503;SDS011;59323;50.874;7.028;2023-04-07T01:01:31;17.97;;;9.70;;
71503;SDS011;59323;50.874;7.028;2023-04-07T01:08:07;19.48;;;10.27;;
71503;SDS011;59323;50.874;7.028;2023-04-07T01:10:11;19.77;;;9.73;;
71503;SDS011;59323;50.874;7.028;2023-04-07T01:12:56;20.67;;;9.63;;
71503;SDS011;59323;50.874;7.028;2023-04-07T01:15:23;22.77;;;10.65;;
71503;SDS011;59323;50.874;7.028;2023-04-07T01:17:53;19.80;;;10.32;;
71503;SDS011;59323;50.874;7.028;2023-04-07T01:20:25;20.55;;;10.35;;
71503;SDS011;59323;50.874;7.028;2023-04-07T01:22:55;21.50;;;10.27;;
71503;SDS011;59323;50.874;7.028;2023-04-07T01:25:38;19.27;;;10.27;;
71503;SDS011;59323;50.874;7.028;2023-04-07T01:31:24;20.80;;;10.02;;
71503;SDS011;59323;50.874;7.028;2023-04-07T01:33:50;20.08;;;9.98;;
71503;SDS011;59323;50.874;7.028;2023-04-07T01:36:17;22.55;;;10.13;;
71503;SDS011;59323;50.874;7.028;2023-04-07T01:38:43;19.20;;;9.70;;
71503;SDS011;59323;50.874;7.028;2023-04-07T01:41:09;21.95;;;10.88;;
71503;SDS011;59323;50.874;7.028;2023-04-07T01:43:36;19.38;;;9.15;;
71503;SDS011;59323;50.874;7.028;2023-04-07T01:46:03;22.20;;;10.30;;
71503;SDS011;59323;50.874;7.028;2023-04-07T01:48:29;17.33;;;8.25;;
71503;SDS011;59323;50.874;7.028;2023-04-07T01:50:58;21.30;;;9.10;;
71503;SDS011;59323;50.874;7.028;2023-04-07T01:53:24;18.50;;;9.15;;
71503;SDS011;59323;50.874;7.028;2023-04-07T01:55:50;17.40;;;9.07;;
71503;SDS011;59323;50.874;7.028;2023-04-07T01:58:17;16.02;;;8.10;;
71503;SDS011;59323;50.874;7.028;2023-04-07T02:00:42;17.27;;;8.80;;
71503;SDS011;59323;50.874;7.028;2023-04-07T02:03:09;15.20;;;8.07;;
71503;SDS011;59323;50.874;7.028;2023-04-07T02:05:44;14.77;;;7.72;;
71503;SDS011;59323;50.874;7.028;2023-04-07T02:08:12;16.88;;;7.80;;
71503;SDS011;59323;50.874;7.028;2023-04-07T02:10:41;14.73;;;7.20;;
71503;SDS011;59323;50.874;7.028;2023-04-07T02:13:11;17.67;;;7.75;;
71503;SDS011;59323;50.874;7.028;2023-04-07T02:15:39;14.67;;;7.97;;
71503;SDS011;59323;50.874;7.028;2023-04-07T02:18:05;14.13;;;7.43;;
71503;SDS011;59323;50.874;7.028;2023-04-07T02:20:34;14.15;;;7.53;;
71503;SDS011;59323;50.874;7.028;2023-04-07T02:23:01;17.73;;;8.55;;
71503;SDS011;59323;50.874;7.028;2023-04-07T02:25:27;16.33;;;8.07;;
71503;SDS011;59323;50.874;7.028;2023-04-07T02:27:55;14.00;;;6.35;;
71503;SDS011;59323;50.874;7.028;2023-04-07T02:30:22;20.45;;;9.20;;
71503;SDS011;59323;50.874;7.028;2023-04-07T02:32:47;16.80;;;8.33;;
71503;SDS011;59323;50.874;7.028;2023-04-07T02:35:13;16.30;;;8.57;;
71503;SDS011;59323;50.874;7.028;2023-04-07T02:37:39;16.63;;;7.10;;
71503;SDS011;59323;50.874;7.028;2023-04-07T02:40:05;19.75;;;8.23;;
71503;SDS011;59323;50.874;7.028;2023-04-07T02:42:31;24.20;;;10.32;;
71503;SDS011;59323;50.874;7.028;2023-04-07T02:44:56;24.07;;;11.60;;
71503;SDS011;59323;50.874;7.028;2023-04-07T02:47:21;23.93;;;11.00;;
71503;SDS011;59323;50.874;7.028;2023-04-07T02:49:47;22.50;;;10.27;;
71503;SDS011;59323;50.874;7.028;2023-04-07T02:52:12;25.67;;;11.27;;
71503;SDS011;59323;50.874;7.028;2023-04-07T02:54:37;24.93;;;11.60;;
71503;SDS011;59323;50.874;7.028;2023-04-07T02:57:03;33.10;;;12.87;;
71503;SDS011;59323;50.874;7.028;2023-04-07T02:59:28;27.13;;;12.43;;
71503;SDS011;59323;50.874;7.028;2023-04-07T03:01:53;29.17;;;13.03;;
71503;SDS011;59323;50.874;7.028;2023-04-07T03:04:20;32.67;;;14.67;;
71503;SDS011;59323;50.874;7.028;2023-04-07T03:06:45;32.60;;;13.38;;
71503;SDS011;59323;50.874;7.028;2023-04-07T03:09:11;33.80;;;14.40;;
71503;SDS011;59323;50.874;7.028;2023-04-07T03:11:36;32.67;;;13.63;;
71503;SDS011;59323;50.874;7.028;2023-04-07T03:14:02;33.40;;;14.47;;
71503;SDS011;59323;50.874;7.028;2023-04-07T03:16:27;32.10;;;13.60;;
71503;SDS011;59323;50.874;7.028;2023-04-07T03:18:52;29.97;;;13.30;;
71503;SDS011;59323;50.874;7.028;2023-04-07T03:21:18;30.77;;;13.95;;
71503;SDS011;59323;50.874;7.028;2023-04-07T03:23:43;31.57;;;13.13;;
71503;SDS011;59323;50.874;7.028;2023-04-07T03:26:11;34.43;;;14.57;;
71503;SDS011;59323;50.874;7.028;2023-04-07T03:28:37;34.67;;;14.93;;
71503;SDS011;59323;50.874;7.028;2023-04-07T03:31:02;36.80;;;14.20;;
71503;SDS011;59323;50.874;7.028;2023-04-07T03:33:27;34.20;;;14.63;;
71503;SDS011;59323;50.874;7.028;2023-04-07T03:35:53;39.13;;;14.80;;
71503;SDS011;59323;50.874;7.028;2023-04-07T03:38:18;34.63;;;14.70;;
71503;SDS011;59323;50.874;7.028;2023-04-07T03:40:43;33.77;;;13.20;;
71503;SDS011;59323;50.874;7.028;2023-04-07T03:43:08;38.60;;;14.87;;
71503;SDS011;59323;50.874;7.028;2023-04-07T03:45:38;34.55;;;15.18;;
71503;SDS011;59323;50.874;7.028;2023-04-07T03:48:03;39.40;;;14.33;;
71503;SDS011;59323;50.874;7.028;2023-04-07T03:50:29;38.03;;;15.80;;
71503;SDS011;59323;50.874;7.028;2023-04-07T03:52:54;41.33;;;16.48;;
71503;SDS011;59323;50.874;7.028;2023-04-07T03:55:22;36.77;;;15.83;;
71503;SDS011;59323;50.874;7.028;2023-04-07T03:57:48;35.35;;;15.05;;
71503;SDS011;59323;50.874;7.028;2023-04-07T04:00:13;38.33;;;15.30;;
71503;SDS011;59323;50.874;7.028;2023-04-07T04:02:38;40.90;;;15.80;;
71503;SDS011;59323;50.874;7.028;2023-04-07T04:05:04;36.70;;;14.67;;
71503;SDS011;59323;50.874;7.028;2023-04-07T04:07:32;39.65;;;15.68;;
71503;SDS011;59323;50.874;7.028;2023-04-07T04:09:58;42.33;;;15.60;;
71503;SDS011;59323;50.874;7.028;2023-04-07T04:12:26;40.20;;;15.80;;
71503;SDS011;59323;50.874;7.028;2023-04-07T04:14:51;38.43;;;16.23;;
71503;SDS011;59323;50.874;7.028;2023-04-07T04:17:17;39.90;;;15.73;;
71503;SDS011;59323;50.874;7.028;2023-04-07T04:19:42;38.47;;;15.20;;
71503;SDS011;59323;50.874;7.028;2023-04-07T04:22:07;39.23;;;15.23;;
71503;SDS011;59323;50.874;7.028;2023-04-07T04:24:33;40.37;;;15.53;;
71503;SDS011;59323;50.874;7.028;2023-04-07T04:26:58;41.53;;;14.73;;
71503;SDS011;59323;50.874;7.028;2023-04-07T04:29:23;42.27;;;15.50;;
71503;SDS011;59323;50.874;7.028;2023-04-07T04:31:49;36.05;;;15.23;;
71503;SDS011;59323;50.874;7.028;2023-04-07T04:34:14;42.30;;;15.70;;
71503;SDS011;59323;50.874;7.028;2023-04-07T04:36:39;39.63;;;14.53;;
71503;SDS011;59323;50.874;7.028;2023-04-07T04:39:05;36.43;;;14.43;;
71503;SDS011;59323;50.874;7.028;2023-04-07T04:41:30;46.65;;;16.55;;
71503;SDS011;59323;50.874;7.028;2023-04-07T04:43:58;39.30;;;15.50;;
71503;SDS011;59323;50.874;7.028;2023-04-07T04:46:23;39.38;;;15.10;;
71503;SDS011;59323;50.874;7.028;2023-04-07T04:48:49;38.53;;;15.73;;
71503;SDS011;59323;50.874;7.028;2023-04-07T04:51:16;41.60;;;15.88;;
71503;SDS011;59323;50.874;7.028;2023-04-07T04:53:42;44.00;;;15.50;;
71503;SDS011;59323;50.874;7.028;2023-04-07T04:56:07;40.23;;;16.87;;
71503;SDS011;59323;50.874;7.028;2023-04-07T04:58:33;46.83;;;16.15;;
71503;SDS011;59323;50.874;7.028;2023-04-07T05:00:59;40.73;;;15.13;;
71503;SDS011;59323;50.874;7.028;2023-04-07T05:03:25;39.20;;;15.80;;
71503;SDS011;59323;50.874;7.028;2023-04-07T05:05:52;39.78;;;16.55;;
71503;SDS011;59323;50.874;7.028;2023-04-07T05:08:17;44.47;;;16.37;;
71503;SDS011;59323;50.874;7.028;2023-04-07T05:10:42;37.43;;;14.77;;
71503;SDS011;59323;50.874;7.028;2023-04-07T05:13:08;40.50;;;15.60;;
71503;SDS011;59323;50.874;7.028;2023-04-07T05:15:33;38.92;;;14.55;;
71503;SDS011;59323;50.874;7.028;2023-04-07T05:17:59;38.20;;;15.90;;
71503;SDS011;59323;50.874;7.028;2023-04-07T05:20:24;42.17;;;16.27;;
71503;SDS011;59323;50.874;7.028;2023-04-07T05:22:50;41.07;;;16.07;;
71503;SDS011;59323;50.874;7.028;2023-04-07T05:25:15;36.50;;;15.10;;
71503;SDS011;59323;50.874;7.028;2023-04-07T05:27:40;37.33;;;14.85;;
71503;SDS011;59323;50.874;7.028;2023-04-07T05:30:06;34.53;;;13.70;;
71503;SDS011;59323;50.874;7.028;2023-04-07T05:32:32;36.97;;;14.90;;
71503;SDS011;59323;50.874;7.028;2023-04-07T05:34:57;35.00;;;13.32;;
71503;SDS011;59323;50.874;7.028;2023-04-07T05:37:22;33.70;;;13.63;;
71503;SDS011;59323;50.874;7.028;2023-04-07T05:39:48;34.73;;;14.20;;
71503;SDS011;59323;50.874;7.028;2023-04-07T05:42:13;34.50;;;13.07;;
71503;SDS011;59323;50.874;7.028;2023-04-07T05:44:38;30.23;;;11.87;;
71503;SDS011;59323;50.874;7.028;2023-04-07T05:47:04;27.75;;;11.40;;
71503;SDS011;59323;50.874;7.028;2023-04-07T05:49:33;29.45;;;11.93;;
71503;SDS011;59323;50.874;7.028;2023-04-07T05:51:59;29.25;;;11.85;;
71503;SDS011;59323;50.874;7.028;2023-04-07T05:54:24;30.57;;;11.90;;
71503;SDS011;59323;50.874;7.028;2023-04-07T05:56:50;29.93;;;11.93;;
71503;SDS011;59323;50.874;7.028;2023-04-07T05:59:15;29.87;;;11.70;;
71503;SDS011;59323;50.874;7.028;2023-04-07T06:01:41;31.30;;;12.57;;
71503;SDS011;59323;50.874;7.028;2023-04-07T06:04:06;30.03;;;11.60;;
71503;SDS011;59323;50.874;7.028;2023-04-07T06:06:31;25.90;;;11.07;;
71503;SDS011;59323;50.874;7.028;2023-04-07T06:08:57;26.27;;;11.25;;
71503;SDS011;59323;50.874;7.028;2023-04-07T06:11:22;29.50;;;10.97;;
71503;SDS011;59323;50.874;7.028;2023-04-07T06:13:47;29.43;;;10.77;;
71503;SDS011;59323;50.874;7.028;2023-04-07T06:16:13;28.43;;;11.47;;
71503;SDS011;59323;50.874;7.028;2023-04-07T06:18:38;26.20;;;10.83;;
71503;SDS011;59323;50.874;7.028;2023-04-07T06:21:04;27.05;;;10.70;;
71503;SDS011;59323;50.874;7.028;2023-04-07T06:23:30;26.07;;;10.00;;
71503;SDS011;59323;50.874;7.028;2023-04-07T06:25:55;25.20;;;10.52;;
71503;SDS011;59323;50.874;7.028;2023-04-07T06:28:20;24.47;;;9.37;;
71503;SDS011;59323;50.874;7.028;2023-04-07T06:30:46;27.80;;;10.23;;
71503;SDS011;59323;50.874;7.028;2023-04-07T06:33:11;21.27;;;9.33;;
71503;SDS011;59323;50.874;7.028;2023-04-07T06:35:38;24.90;;;8.67;;
71503;SDS011;59323;50.874;7.028;2023-04-07T06:38:03;25.77;;;9.23;;
71503;SDS011;59323;50.874;7.028;2023-04-07T06:40:29;21.47;;;9.47;;
71503;SDS011;59323;50.874;7.028;2023-04-07T06:42:54;25.17;;;9.52;;
71503;SDS011;59323;50.874;7.028;2023-04-07T06:45:20;25.13;;;9.67;;
71503;SDS011;59323;50.874;7.028;2023-04-07T06:47:45;23.27;;;7.97;;
71503;SDS011;59323;50.874;7.028;2023-04-07T06:50:11;19.63;;;8.40;;
71503;SDS011;59323;50.874;7.028;2023-04-07T06:52:36;20.07;;;7.53;;
71503;SDS011;59323;50.874;7.028;2023-04-07T06:55:02;18.53;;;7.77;;
71503;SDS011;59323;50.874;7.028;2023-04-07T06:57:27;15.80;;;6.17;;
71503;SDS011;59323;50.874;7.028;2023-04-07T06:59:53;16.07;;;6.10;;
71503;SDS011;59323;50.874;7.028;2023-04-07T07:02:18;16.37;;;5.17;;
71503;SDS011;59323;50.874;7.028;2023-04-07T07:04:43;15.17;;;5.40;;
71503;SDS011;59323;50.874;7.028;2023-04-07T07:07:09;14.63;;;5.23;;
71503;SDS011;59323;50.874;7.028;2023-04-07T07:09:34;14.35;;;5.07;;
71503;SDS011;59323;50.874;7.028;2023-04-07T07:11:59;11.30;;;4.13;;
71503;SDS011;59323;50.874;7.028;2023-04-07T07:14:26;15.52;;;4.90;;
71503;SDS011;59323;50.874;7.028;2023-04-07T07:16:51;13.67;;;4.87;;
71503;SDS011;59323;50.874;7.028;2023-04-07T07:19:17;13.57;;;4.67;;
71503;SDS011;59323;50.874;7.028;2023-04-07T07:21:42;14.20;;;4.77;;
71503;SDS011;59323;50.874;7.028;2023-04-07T07:24:07;13.40;;;4.33;;
71503;SDS011;59323;50.874;7.028;2023-04-07T07:26:35;15.17;;;4.90;;
71503;SDS011;59323;50.874;7.028;2023-04-07T07:29:00;14.00;;;4.40;;
71503;SDS011;59323;50.874;7.028;2023-04-07T07:31:26;10.53;;;3.53;;
71503;SDS011;59323;50.874;7.028;2023-04-07T07:33:51;12.90;;;4.30;;
71503;SDS011;59323;50.874;7.028;2023-04-07T07:36:18;13.73;;;5.17;;
71503;SDS011;59323;50.874;7.028;2023-04-07T07:38:43;12.80;;;4.18;;
71503;SDS011;59323;50.874;7.028;2023-04-07T07:41:09;12.27;;;4.53;;
71503;SDS011;59323;50.874;7.028;2023-04-07T07:43:34;13.17;;;3.90;;
71503;SDS011;59323;50.874;7.028;2023-04-07T07:46:01;11.23;;;4.22;;
71503;SDS011;59323;50.874;7.028;2023-04-07T07:48:26;12.57;;;3.83;;
71503;SDS011;59323;50.874;7.028;2023-04-07T07:50:51;10.60;;;4.00;;
71503;SDS011;59323;50.874;7.028;2023-04-07T07:53:17;10.20;;;3.83;;
71503;SDS011;59323;50.874;7.028;2023-04-07T07:55:44;11.57;;;3.97;;
71503;SDS011;59323;50.874;7.028;2023-04-07T07:58:10;10.60;;;3.63;;
71503;SDS011;59323;50.874;7.028;2023-04-07T08:00:35;15.27;;;4.37;;
71503;SDS011;59323;50.874;7.028;2023-04-07T08:03:00;12.23;;;3.83;;
71503;SDS011;59323;50.874;7.028;2023-04-07T08:05:26;11.60;;;4.00;;
71503;SDS011;59323;50.874;7.028;2023-04-07T08:07:51;12.57;;;4.23;;
71503;SDS011;59323;50.874;7.028;2023-04-07T08:10:17;12.32;;;3.83;;
71503;SDS011;59323;50.874;7.028;2023-04-07T08:12:44;13.13;;;4.60;;
71503;SDS011;59323;50.874;7.028;2023-04-07T08:15:09;12.35;;;5.05;;
71503;SDS011;59323;50.874;7.028;2023-04-07T08:17:35;14.70;;;4.37;;
71503;SDS011;59323;50.874;7.028;2023-04-07T08:20:00;9.97;;;3.93;;
71503;SDS011;59323;50.874;7.028;2023-04-07T08:22:27;12.85;;;3.90;;
71503;SDS011;59323;50.874;7.028;2023-04-07T08:24:52;11.93;;;4.47;;
71503;SDS011;59323;50.874;7.028;2023-04-07T08:27:17;12.00;;;4.50;;
71503;SDS011;59323;50.874;7.028;2023-04-07T08:29:42;13.10;;;4.80;;
71503;SDS011;59323;50.874;7.028;2023-04-07T08:32:08;11.57;;;4.17;;
71503;SDS011;59323;50.874;7.028;2023-04-07T08:34:33;12.70;;;4.20;;
71503;SDS011;59323;50.874;7.028;2023-04-07T08:36:58;11.63;;;4.53;;
71503;SDS011;59323;50.874;7.028;2023-04-07T08:39:24;12.70;;;4.07;;
71503;SDS011;59323;50.874;7.028;2023-04-07T08:41:49;14.80;;;4.60;;
71503;SDS011;59323;50.874;7.028;2023-04-07T08:44:15;12.32;;;4.47;;
71503;SDS011;59323;50.874;7.028;2023-04-07T08:46:41;12.07;;;4.80;;
71503;SDS011;59323;50.874;7.028;2023-04-07T08:49:08;12.23;;;5.03;;
71503;SDS011;59323;50.874;7.028;2023-04-07T08:51:36;12.80;;;4.65;;
71503;SDS011;59323;50.874;7.028;2023-04-07T08:54:06;13.40;;;4.43;;
71503;SDS011;59323;50.874;7.028;2023-04-07T08:56:34;13.35;;;4.68;;
71503;SDS011;59323;50.874;7.028;2023-04-07T08:59:06;13.32;;;3.95;;
71503;SDS011;59323;50.874;7.028;2023-04-07T09:01:33;12.07;;;3.97;;
71503;SDS011;59323;50.874;7.028;2023-04-07T09:04:00;12.77;;;3.95;;
71503;SDS011;59323;50.874;7.028;2023-04-07T09:06:28;13.15;;;4.53;;
71503;SDS011;59323;50.874;7.028;2023-04-07T09:08:56;13.02;;;4.32;;
71503;SDS011;59323;50.874;7.028;2023-04-07T09:11:22;12.07;;;4.70;;
71503;SDS011;59323;50.874;7.028;2023-04-07T09:13:48;17.30;;;4.67;;
71503;SDS011;59323;50.874;7.028;2023-04-07T09:16:13;13.80;;;3.97;;
71503;SDS011;59323;50.874;7.028;2023-04-07T09:18:39;10.70;;;4.27;;
71503;SDS011;59323;50.874;7.028;2023-04-07T09:21:06;10.75;;;4.50;;
71503;SDS011;59323;50.874;7.028;2023-04-07T09:23:33;11.82;;;4.70;;
71503;SDS011;59323;50.874;7.028;2023-04-07T09:26:17;12.70;;;4.50;;
71503;SDS011;59323;50.874;7.028;2023-04-07T09:31:17;12.82;;;4.50;;
71503;SDS011;59323;50.874;7.028;2023-04-07T09:33:45;10.98;;;4.20;;
71503;SDS011;59323;50.874;7.028;2023-04-07T09:36:11;12.30;;;4.17;;
71503;SDS011;59323;50.874;7.028;2023-04-07T09:38:37;12.27;;;4.67;;
71503;SDS011;59323;50.874;7.028;2023-04-07T09:41:05;13.37;;;4.90;;
71503;SDS011;59323;50.874;7.028;2023-04-07T09:43:36;12.07;;;4.72;;
71503;SDS011;59323;50.874;7.028;2023-04-07T09:46:09;13.68;;;4.97;;
71503;SDS011;59323;50.874;7.028;2023-04-07T09:48:37;13.23;;;4.68;;
71503;SDS011;59323;50.874;7.028;2023-04-07T09:51:10;12.32;;;4.75;;
71503;SDS011;59323;50.874;7.028;2023-04-07T09:53:50;15.30;;;4.87;;
71503;SDS011;59323;50.874;7.028;2023-04-07T09:56:17;16.13;;;4.68;;
71503;SDS011;59323;50.874;7.028;2023-04-07T09:58:44;14.30;;;4.60;;
71503;SDS011;59323;50.874;7.028;2023-04-07T10:01:11;13.02;;;4.82;;
71503;SDS011;59323;50.874;7.028;2023-04-07T10:03:37;13.90;;;4.80;;
71503;SDS011;59323;50.874;7.028;2023-04-07T10:06:03;12.80;;;4.60;;
71503;SDS011;59323;50.874;7.028;2023-04-07T10:08:34;14.02;;;4.97;;
71503;SDS011;59323;50.874;7.028;2023-04-07T10:11:01;11.80;;;4.35;;
71503;SDS011;59323;50.874;7.028;2023-04-07T10:13:31;14.32;;;4.72;;
71503;SDS011;59323;50.874;7.028;2023-04-07T10:15:57;10.93;;;4.10;;
71503;SDS011;59323;50.874;7.028;2023-04-07T10:18:31;11.90;;;4.55;;
71503;SDS011;59323;50.874;7.028;2023-04-07T10:21:00;12.43;;;4.45;;
71503;SDS011;59323;50.874;7.028;2023-04-07T10:26:25;12.48;;;4.25;;
71503;SDS011;59323;50.874;7.028;2023-04-07T10:28:56;14.70;;;4.93;;
71503;SDS011;59323;50.874;7.028;2023-04-07T10:31:26;13.35;;;4.70;;
71503;SDS011;59323;50.874;7.028;2023-04-07T10:33:52;12.98;;;5.05;;
71503;SDS011;59323;50.874;7.028;2023-04-07T10:36:19;12.35;;;4.78;;
71503;SDS011;59323;50.874;7.028;2023-04-07T10:41:33;14.40;;;5.53;;
71503;SDS011;59323;50.874;7.028;2023-04-07T10:44:02;16.05;;;6.07;;
71503;SDS011;59323;50.874;7.028;2023-04-07T10:49:16;16.02;;;5.88;;
71503;SDS011;59323;50.874;7.028;2023-04-07T10:51:44;17.60;;;6.25;;
71503;SDS011;59323;50.874;7.028;2023-04-07T10:54:35;16.17;;;6.97;;
71503;SDS011;59323;50.874;7.028;2023-04-07T10:59:38;18.53;;;7.33;;
71503;SDS011;59323;50.874;7.028;2023-04-07T11:04:37;16.13;;;6.68;;
71503;SDS011;59323;50.874;7.028;2023-04-07T11:07:03;20.52;;;7.68;;
71503;SDS011;59323;50.874;7.028;2023-04-07T11:09:28;20.73;;;8.17;;
71503;SDS011;59323;50.874;7.028;2023-04-07T11:11:53;17.70;;;7.33;;
71503;SDS011;59323;50.874;7.028;2023-04-07T11:14:29;18.77;;;7.07;;
71503;SDS011;59323;50.874;7.028;2023-04-07T11:16:55;21.02;;;8.27;;
71503;SDS011;59323;50.874;7.028;2023-04-07T11:19:21;20.07;;;7.53;;
71503;SDS011;59323;50.874;7.028;2023-04-07T11:21:47;16.48;;;6.47;;
71503;SDS011;59323;50.874;7.028;2023-04-07T11:27:03;15.00;;;6.00;;
71503;SDS011;59323;50.874;7.028;2023-04-07T11:29:29;16.08;;;6.13;;
71503;SDS011;59323;50.874;7.028;2023-04-07T11:31:58;16.47;;;5.90;;
71503;SDS011;59323;50.874;7.028;2023-04-07T11:34:34;15.82;;;5.85;;
71503;SDS011;59323;50.874;7.028;2023-04-07T11:39:52;15.85;;;6.70;;
71503;SDS011;59323;50.874;7.028;2023-04-07T11:42:34;20.73;;;6.93;;
71503;SDS011;59323;50.874;7.028;2023-04-07T11:45:00;15.27;;;6.10;;
71503;SDS011;59323;50.874;7.028;2023-04-07T11:47:36;19.40;;;7.25;;
71503;SDS011;59323;50.874;7.028;2023-04-07T11:50:02;16.23;;;6.40;;
71503;SDS011;59323;50.874;7.028;2023-04-07T11:52:28;16.77;;;5.72;;
71503;SDS011;59323;50.874;7.028;2023-04-07T11:55:04;18.48;;;7.15;;
71503;SDS011;59323;50.874;7.028;2023-04-07T11:57:30;16.30;;;6.63;;
71503;SDS011;59323;50.874;7.028;2023-04-07T12:00:05;17.65;;;7.03;;
71503;SDS011;59323;50.874;7.028;2023-04-07T12:02:32;20.77;;;7.80;;
71503;SDS011;59323;50.874;7.028;2023-04-07T12:04:58;17.73;;;6.33;;
71503;SDS011;59323;50.874;7.028;2023-04-07T12:07:23;18.70;;;6.88;;
71503;SDS011;59323;50.874;7.028;2023-04-07T12:09:52;19.13;;;6.40;;
71503;SDS011;59323;50.874;7.028;2023-04-07T12:12:25;17.77;;;6.43;;
71503;SDS011;59323;50.874;7.028;2023-04-07T12:14:52;21.73;;;6.93;;
71503;SDS011;59323;50.874;7.028;2023-04-07T12:17:25;17.80;;;6.95;;
71503;SDS011;59323;50.874;7.028;2023-04-07T12:19:51;16.17;;;5.97;;
71503;SDS011;59323;50.874;7.028;2023-04-07T12:22:17;18.53;;;6.73;;
71503;SDS011;59323;50.874;7.028;2023-04-07T12:24:43;19.27;;;6.50;;
71503;SDS011;59323;50.874;7.028;2023-04-07T12:27:08;17.20;;;6.63;;
71503;SDS011;59323;50.874;7.028;2023-04-07T12:29:34;22.90;;;8.20;;
71503;SDS011;59323;50.874;7.028;2023-04-07T12:32:01;17.50;;;7.53;;
71503;SDS011;59323;50.874;7.028;2023-04-07T12:34:27;18.23;;;6.53;;
71503;SDS011;59323;50.874;7.028;2023-04-07T12:36:52;22.13;;;7.50;;
71503;SDS011;59323;50.874;7.028;2023-04-07T12:39:18;18.90;;;7.37;;
71503;SDS011;59323;50.874;7.028;2023-04-07T12:41:43;20.20;;;7.80;;
71503;SDS011;59323;50.874;7.028;2023-04-07T12:44:09;17.48;;;7.70;;
71503;SDS011;59323;50.874;7.028;2023-04-07T12:46:35;21.77;;;8.47;;
71503;SDS011;59323;50.874;7.028;2023-04-07T12:49:00;19.17;;;8.63;;
71503;SDS011;59323;50.874;7.028;2023-04-07T12:51:26;22.15;;;9.38;;
71503;SDS011;59323;50.874;7.028;2023-04-07T12:53:52;18.90;;;8.63;;
71503;SDS011;59323;50.874;7.028;2023-04-07T12:56:18;18.50;;;7.93;;
71503;SDS011;59323;50.874;7.028;2023-04-07T12:58:43;20.73;;;8.27;;
71503;SDS011;59323;50.874;7.028;2023-04-07T13:01:09;20.87;;;8.70;;
71503;SDS011;59323;50.874;7.028;2023-04-07T13:03:34;21.40;;;8.10;;
71503;SDS011;59323;50.874;7.028;2023-04-07T13:06:00;19.85;;;7.90;;
71503;SDS011;59323;50.874;7.028;2023-04-07T13:08:28;20.80;;;8.13;;
71503;SDS011;59323;50.874;7.028;2023-04-07T13:10:54;24.00;;;9.27;;
71503;SDS011;59323;50.874;7.028;2023-04-07T13:13:20;19.90;;;7.87;;
71503;SDS011;59323;50.874;7.028;2023-04-07T13:15:46;19.02;;;8.07;;
71503;SDS011;59323;50.874;7.028;2023-04-07T13:18:11;21.83;;;8.33;;
71503;SDS011;59323;50.874;7.028;2023-04-07T13:20:37;19.53;;;8.30;;
71503;SDS011;59323;50.874;7.028;2023-04-07T13:23:02;25.23;;;9.23;;
71503;SDS011;59323;50.874;7.028;2023-04-07T13:25:28;21.80;;;9.03;;
71503;SDS011;59323;50.874;7.028;2023-04-07T13:27:53;22.17;;;8.80;;
71503;SDS011;59323;50.874;7.028;2023-04-07T13:30:18;23.38;;;8.82;;
71503;SDS011;59323;50.874;7.028;2023-04-07T13:32:44;20.03;;;8.60;;
71503;SDS011;59323;50.874;7.028;2023-04-07T13:35:13;22.63;;;8.88;;
71503;SDS011;59323;50.874;7.028;2023-04-07T13:37:41;19.97;;;7.93;;
71503;SDS011;59323;50.874;7.028;2023-04-07T13:40:08;19.35;;;7.68;;
71503;SDS011;59323;50.874;7.028;2023-04-07T13:42:34;19.08;;;8.18;;
71503;SDS011;59323;50.874;7.028;2023-04-07T13:45:00;20.83;;;8.13;;
71503;SDS011;59323;50.874;7.028;2023-04-07T13:47:25;23.38;;;9.00;;
71503;SDS011;59323;50.874;7.028;2023-04-07T13:49:51;19.93;;;7.43;;
71503;SDS011;59323;50.874;7.028;2023-04-07T13:52:18;18.73;;;7.75;;
71503;SDS011;59323;50.874;7.028;2023-04-07T13:54:44;21.70;;;8.90;;
71503;SDS011;59323;50.874;7.028;2023-04-07T13:57:09;19.70;;;7.77;;
71503;SDS011;59323;50.874;7.028;2023-04-07T13:59:36;16.90;;;7.97;;
71503;SDS011;59323;50.874;7.028;2023-04-07T14:02:01;15.02;;;6.97;;
71503;SDS011;59323;50.874;7.028;2023-04-07T14:04:26;17.17;;;6.97;;
71503;SDS011;59323;50.874;7.028;2023-04-07T14:06:52;17.63;;;6.57;;
71503;SDS011;59323;50.874;7.028;2023-04-07T14:09:18;18.42;;;6.47;;
71503;SDS011;59323;50.874;7.028;2023-04-07T14:11:43;13.27;;;6.13;;
71503;SDS011;59323;50.874;7.028;2023-04-07T14:14:08;15.47;;;5.90;;
71503;SDS011;59323;50.874;7.028;2023-04-07T14:16:34;16.47;;;6.17;;
71503;SDS011;59323;50.874;7.028;2023-04-07T14:18:59;17.25;;;6.63;;
71503;SDS011;59323;50.874;7.028;2023-04-07T14:21:24;14.80;;;6.13;;
71503;SDS011;59323;50.874;7.028;2023-04-07T14:23:51;15.30;;;5.83;;
71503;SDS011;59323;50.874;7.028;2023-04-07T14:26:17;14.00;;;5.82;;
71503;SDS011;59323;50.874;7.028;2023-04-07T14:28:42;15.30;;;5.97;;
71503;SDS011;59323;50.874;7.028;2023-04-07T14:31:11;13.77;;;5.53;;
71503;SDS011;59323;50.874;7.028;2023-04-07T14:33:43;13.73;;;5.90;;
71503;SDS011;59323;50.874;7.028;2023-04-07T14:36:09;11.77;;;5.03;;
71503;SDS011;59323;50.874;7.028;2023-04-07T14:38:35;12.38;;;5.30;;
71503;SDS011;59323;50.874;7.028;2023-04-07T14:41:01;10.37;;;4.83;;
71503;SDS011;59323;50.874;7.028;2023-04-07T14:43:27;11.38;;;5.07;;
71503;SDS011;59323;50.874;7.028;2023-04-07T14:45:58;11.68;;;5.13;;
71503;SDS011;59323;50.874;7.028;2023-04-07T14:48:24;13.67;;;6.40;;
71503;SDS011;59323;50.874;7.028;2023-04-07T14:50:49;17.47;;;6.40;;
71503;SDS011;59323;50.874;7.028;2023-04-07T14:53:17;15.02;;;7.18;;
71503;SDS011;59323;50.874;7.028;2023-04-07T14:55:42;16.80;;;7.05;;